createdAt,value
2022-11-26T00:00:44.522Z,3.26
2022-11-26T00:03:12.397Z,3.33
2022-11-26T00:05:40.872Z,3.31
2022-11-26T00:08:17.360Z,3.35
2022-11-26T00:10:45.254Z,3.28
2022-11-26T00:13:17.904Z,3.29
2022-11-26T00:15:46.849Z,3.32
2022-11-26T00:18:14.981Z,3.33
2022-11-26T00:20:43.157Z,3.39
2022-11-26T00:23:17.266Z,3.41
2022-11-26T00:25:46.064Z,3.44
2022-11-26T00:28:27.930Z,3.50
2022-11-26T00:30:59.455Z,3.51
2022-11-26T00:33:27.991Z,3.52
2022-11-26T00:35:57.685Z,3.54
2022-11-26T00:38:25.493Z,3.57
2022-11-26T00:40:53.412Z,3.64
2022-11-26T00:43:20.965Z,3.65
2022-11-26T00:45:50.439Z,3.76
2022-11-26T00:48:19.508Z,3.80
2022-11-26T00:50:49.220Z,3.68
2022-11-26T00:53:19.124Z,3.64
2022-11-26T00:55:49.261Z,3.61
2022-11-26T00:58:23.788Z,3.71
2022-11-26T01:00:51.989Z,3.68
2022-11-26T01:03:21.096Z,3.73
2022-11-26T01:05:50.811Z,3.61
2022-11-26T01:08:27.859Z,3.58
2022-11-26T01:10:55.461Z,3.59
2022-11-26T01:13:23.160Z,3.55
2022-11-26T01:15:50.903Z,3.62
2022-11-26T01:18:21.390Z,3.68
2022-11-26T01:20:49.490Z,3.53
2022-11-26T01:23:19.143Z,3.56
2022-11-26T01:25:47.643Z,3.68
2022-11-26T01:28:17.814Z,3.77
2022-11-26T01:30:46.073Z,3.74
2022-11-26T01:33:13.654Z,3.76
2022-11-26T01:35:42.573Z,3.75
2022-11-26T01:38:12.580Z,3.70
2022-11-26T01:40:50.747Z,3.70
2022-11-26T01:43:24.082Z,3.71
2022-11-26T01:45:51.806Z,3.71
2022-11-26T01:48:24.619Z,3.75
2022-11-26T01:50:57.628Z,3.71
2022-11-26T01:53:32.428Z,3.74
2022-11-26T01:56:05.417Z,3.70
2022-11-26T01:58:39.660Z,3.71
2022-11-26T02:01:08.230Z,3.70
2022-11-26T02:03:40.930Z,3.70
2022-11-26T02:06:13.134Z,3.67
2022-11-26T02:08:40.869Z,3.66
2022-11-26T02:11:17.276Z,3.64
2022-11-26T02:13:45.828Z,3.65
2022-11-26T02:16:19.268Z,3.58
2022-11-26T02:18:54.195Z,3.54
2022-11-26T02:21:27.542Z,3.59
2022-11-26T02:24:37.054Z,3.63
2022-11-26T02:27:28.723Z,3.53
2022-11-26T02:30:09.546Z,3.65
2022-11-26T02:32:59.257Z,3.77
2022-11-26T02:35:33.037Z,3.66
2022-11-26T02:38:03.597Z,3.61
2022-11-26T02:40:31.202Z,3.63
2022-11-26T02:42:59.108Z,3.62
2022-11-26T02:45:30.967Z,3.66
2022-11-26T02:48:00.551Z,3.58
2022-11-26T02:50:32.288Z,3.54
2022-11-26T02:53:00.574Z,3.58
2022-11-26T02:55:31.513Z,3.62
2022-11-26T02:57:59.422Z,3.64
2022-11-26T03:00:28.405Z,3.67
2022-11-26T03:03:01.595Z,3.68
2022-11-26T03:05:32.906Z,3.70
2022-11-26T03:08:01.151Z,3.76
2022-11-26T03:10:30.122Z,3.76
2022-11-26T03:12:57.737Z,3.86
2022-11-26T03:15:25.587Z,3.86
2022-11-26T03:17:54.493Z,3.85
2022-11-26T03:20:22.145Z,3.82
2022-11-26T03:22:49.739Z,3.96
2022-11-26T03:25:17.678Z,3.90
2022-11-26T03:27:45.279Z,3.90
2022-11-26T03:30:13.736Z,3.94
2022-11-26T03:32:41.513Z,3.90
2022-11-26T03:35:11.036Z,3.94
2022-11-26T03:37:38.693Z,3.97
2022-11-26T03:40:07.838Z,3.94
2022-11-26T03:42:35.448Z,3.82
2022-11-26T03:45:03.011Z,3.87
2022-11-26T03:47:30.627Z,3.92
2022-11-26T03:49:58.255Z,3.83
2022-11-26T03:52:27.347Z,3.82
2022-11-26T03:54:54.960Z,3.84
2022-11-26T03:57:22.777Z,3.87
2022-11-26T03:59:50.380Z,3.87
2022-11-26T04:02:17.955Z,3.84
2022-11-26T04:04:45.548Z,3.79
2022-11-26T04:07:13.286Z,3.88
2022-11-26T04:09:42.264Z,3.90
2022-11-26T04:12:09.865Z,3.80
2022-11-26T04:14:37.766Z,3.89
2022-11-26T04:17:05.519Z,3.95
2022-11-26T04:19:33.402Z,3.94
2022-11-26T04:22:00.980Z,3.89
2022-11-26T04:24:29.042Z,3.83
2022-11-26T04:26:57.987Z,3.83
2022-11-26T04:29:25.553Z,3.96
2022-11-26T04:31:53.381Z,4.04
2022-11-26T04:34:21.078Z,3.95
2022-11-26T04:36:48.752Z,3.95
2022-11-26T04:39:16.384Z,4.00
2022-11-26T04:41:44.191Z,4.06
2022-11-26T04:44:13.126Z,3.95
2022-11-26T04:46:40.710Z,3.93
2022-11-26T04:49:08.693Z,3.91
2022-11-26T04:51:36.290Z,3.95
2022-11-26T04:54:06.421Z,4.07
2022-11-26T04:56:36.239Z,4.12
2022-11-26T04:59:03.949Z,4.16
2022-11-26T05:01:32.917Z,4.09
2022-11-26T05:04:00.535Z,4.08
2022-11-26T05:06:28.655Z,4.10
2022-11-26T05:08:56.230Z,4.10
2022-11-26T05:11:23.778Z,4.16
2022-11-26T05:13:51.369Z,4.14
2022-11-26T05:16:18.955Z,4.22
2022-11-26T05:18:47.889Z,4.30
2022-11-26T05:21:15.453Z,4.37
2022-11-26T05:23:43.074Z,4.37
2022-11-26T05:26:10.646Z,4.27
2022-11-26T05:28:38.211Z,4.23
2022-11-26T05:31:06.799Z,4.14
2022-11-26T05:33:34.390Z,4.01
2022-11-26T05:36:03.297Z,4.01
2022-11-26T05:38:31.080Z,4.04
2022-11-26T05:40:58.801Z,4.00
2022-11-26T05:43:26.435Z,3.96
2022-11-26T05:45:54.106Z,3.94
2022-11-26T05:48:21.763Z,4.05
2022-11-26T05:50:54.354Z,4.10
2022-11-26T05:53:23.541Z,3.98
2022-11-26T05:55:51.203Z,3.89
2022-11-26T05:58:18.910Z,3.90
2022-11-26T06:00:46.710Z,4.04
2022-11-26T06:03:19.623Z,4.08
2022-11-26T06:05:47.798Z,4.11
2022-11-26T06:08:15.411Z,4.00
2022-11-26T06:10:44.903Z,3.99
2022-11-26T06:13:12.484Z,3.97
2022-11-26T06:15:40.081Z,4.02
2022-11-26T06:18:07.637Z,3.96
2022-11-26T06:20:35.437Z,3.85
2022-11-26T06:23:03.093Z,3.61
2022-11-26T06:25:30.685Z,3.58
2022-11-26T06:27:59.590Z,3.54
2022-11-26T06:30:27.177Z,3.50
2022-11-26T06:32:55.110Z,3.42
2022-11-26T06:35:22.694Z,3.40
2022-11-26T06:37:50.311Z,3.45
2022-11-26T06:40:20.565Z,3.48
2022-11-26T06:42:51.610Z,3.55
2022-11-26T06:45:20.760Z,3.64
2022-11-26T06:47:50.156Z,3.62
2022-11-26T06:50:19.044Z,3.73
2022-11-26T06:52:46.762Z,3.81
2022-11-26T06:55:14.436Z,3.71
2022-11-26T06:57:42.173Z,3.83
2022-11-26T07:00:10.894Z,3.90
2022-11-26T07:02:39.886Z,3.98
2022-11-26T07:05:07.896Z,4.04
2022-11-26T07:07:37.760Z,4.13
2022-11-26T07:10:06.366Z,4.14
2022-11-26T07:12:34.067Z,3.99
2022-11-26T07:15:01.643Z,3.86
2022-11-26T07:17:29.796Z,4.07
2022-11-26T07:19:58.722Z,4.19
2022-11-26T07:22:26.348Z,4.28
2022-11-26T07:24:53.947Z,4.32
2022-11-26T07:27:21.522Z,4.42
2022-11-26T07:29:49.069Z,4.49
2022-11-26T07:32:16.713Z,4.64
2022-11-26T07:34:44.267Z,4.69
2022-11-26T07:37:13.242Z,4.73
2022-11-26T07:39:40.812Z,4.77
2022-11-26T07:42:08.407Z,4.91
2022-11-26T07:44:36.150Z,4.80
2022-11-26T07:47:04.378Z,4.78
2022-11-26T07:49:31.973Z,4.83
2022-11-26T07:51:59.580Z,5.05
2022-11-26T07:54:28.563Z,5.26
2022-11-26T07:56:56.145Z,5.38
2022-11-26T07:59:23.919Z,5.33
2022-11-26T08:01:51.664Z,5.27
2022-11-26T08:04:19.270Z,5.22
2022-11-26T08:06:46.881Z,5.21
2022-11-26T08:09:14.451Z,5.14
2022-11-26T08:11:43.409Z,5.24
2022-11-26T08:14:12.852Z,5.12
2022-11-26T08:16:40.780Z,5.07
2022-11-26T08:19:12.546Z,5.07
2022-11-26T08:21:40.503Z,5.10
2022-11-26T08:24:09.342Z,5.11
2022-11-26T08:26:43.595Z,5.10
2022-11-26T08:29:13.090Z,5.12
2022-11-26T08:31:45.784Z,5.28
2022-11-26T08:34:16.469Z,5.41
2022-11-26T08:36:44.583Z,5.30
2022-11-26T08:39:14.038Z,5.43
2022-11-26T08:41:41.663Z,5.40
2022-11-26T08:44:09.299Z,5.33
2022-11-26T08:46:39.917Z,5.29
2022-11-26T08:49:13.436Z,5.35
2022-11-26T08:51:41.225Z,5.49
2022-11-26T08:54:08.860Z,5.43
2022-11-26T08:56:36.743Z,5.43
2022-11-26T08:59:04.460Z,5.46
2022-11-26T09:01:33.596Z,5.42
2022-11-26T09:04:04.809Z,5.36
2022-11-26T09:06:34.051Z,5.26
2022-11-26T09:09:14.502Z,5.29
2022-11-26T09:11:45.480Z,5.19
2022-11-26T09:14:13.851Z,5.20
2022-11-26T09:16:41.565Z,5.35
2022-11-26T09:19:12.562Z,5.60
2022-11-26T09:21:40.123Z,5.89
2022-11-26T09:24:08.176Z,6.05
2022-11-26T09:26:36.118Z,6.17
2022-11-26T09:29:04.615Z,6.05
2022-11-26T09:31:32.582Z,5.91
2022-11-26T09:34:01.684Z,6.00
2022-11-26T09:36:30.683Z,5.74
2022-11-26T09:38:59.156Z,5.81
2022-11-26T09:41:39.716Z,5.85
2022-11-26T09:44:22.151Z,5.92
2022-11-26T09:47:11.474Z,5.82
2022-11-26T09:49:48.547Z,5.77
2022-11-26T09:52:19.977Z,5.87
2022-11-26T09:54:48.806Z,5.84
2022-11-26T09:57:21.850Z,5.81
2022-11-26T09:59:50.782Z,5.97
2022-11-26T10:02:18.557Z,6.23
2022-11-26T10:04:47.177Z,6.43
2022-11-26T10:07:30.784Z,6.43
2022-11-26T10:10:03.684Z,6.54
2022-11-26T10:12:56.554Z,6.84
2022-11-26T10:15:33.097Z,6.98
2022-11-26T10:18:08.118Z,7.42
2022-11-26T10:20:51.219Z,7.39
2022-11-26T10:23:26.626Z,7.51
2022-11-26T10:25:56.200Z,7.31
2022-11-26T10:28:27.593Z,6.95
2022-11-26T10:30:58.859Z,7.06
2022-11-26T10:33:28.860Z,7.29
2022-11-26T10:35:56.427Z,7.24
2022-11-26T10:38:25.389Z,6.89
2022-11-26T10:40:53.554Z,6.98
2022-11-26T10:43:23.916Z,6.57
2022-11-26T10:45:52.989Z,6.44
2022-11-26T10:48:24.217Z,6.30
2022-11-26T10:51:00.630Z,6.13
2022-11-26T10:53:32.501Z,6.10
2022-11-26T10:56:01.689Z,5.96
2022-11-26T10:58:31.839Z,5.93
2022-11-26T11:01:02.505Z,5.79
2022-11-26T11:04:05.977Z,5.81
2022-11-26T11:06:39.914Z,5.82
2022-11-26T11:09:26.596Z,6.01
2022-11-26T11:12:25.674Z,6.33
2022-11-26T11:14:53.893Z,6.66
2022-11-26T11:17:36.728Z,6.79
2022-11-26T11:20:24.411Z,6.90
2022-11-26T11:22:59.032Z,6.90
2022-11-26T11:25:30.373Z,7.03
2022-11-26T11:28:02.134Z,7.33
2022-11-26T11:30:32.289Z,7.51
2022-11-26T11:33:12.223Z,7.49
2022-11-26T11:35:40.090Z,7.49
2022-11-26T11:38:23.838Z,7.33
2022-11-26T11:40:53.243Z,7.04
2022-11-26T11:43:23.055Z,7.22
2022-11-26T11:45:57.275Z,7.07
2022-11-26T11:48:32.935Z,7.17
2022-11-26T11:51:08.833Z,7.14
2022-11-26T11:53:41.489Z,7.21
2022-11-26T11:56:26.097Z,7.15
2022-11-26T11:59:37.062Z,7.09
2022-11-26T12:02:21.117Z,7.13
2022-11-26T12:05:01.715Z,6.90
2022-11-26T12:07:36.658Z,6.88
2022-11-26T12:10:12.720Z,6.81
2022-11-26T12:12:45.603Z,6.70
2022-11-26T12:15:18.993Z,6.76
2022-11-26T12:17:49.860Z,6.77
2022-11-26T12:20:23.757Z,6.71
2022-11-26T12:22:58.073Z,6.64
2022-11-26T12:25:35.194Z,6.60
2022-11-26T12:28:11.602Z,6.52
2022-11-26T12:30:46.198Z,6.49
2022-11-26T12:33:18.045Z,6.36
2022-11-26T12:35:49.541Z,6.12
2022-11-26T12:38:20.431Z,6.00
2022-11-26T12:40:50.651Z,5.96
2022-11-26T12:43:22.585Z,6.00
2022-11-26T12:45:52.768Z,5.88
2022-11-26T12:48:30.013Z,5.84
2022-11-26T12:51:00.307Z,6.00
2022-11-26T12:53:35.296Z,6.11
2022-11-26T12:56:10.174Z,6.10
2022-11-26T12:58:48.158Z,6.13
2022-11-26T13:01:15.852Z,6.23
2022-11-26T13:03:43.509Z,6.38
2022-11-26T13:06:19.036Z,6.35
2022-11-26T13:08:50.870Z,6.46
2022-11-26T13:11:27.605Z,6.48
2022-11-26T13:14:00.264Z,6.70
2022-11-26T13:16:34.740Z,6.83
2022-11-26T13:19:07.072Z,6.60
2022-11-26T13:21:43.879Z,6.27
2022-11-26T13:24:27.779Z,6.40
2022-11-26T13:27:07.527Z,6.38
2022-11-26T13:30:05.358Z,6.31
2022-11-26T13:33:01.950Z,6.17
2022-11-26T13:35:45.909Z,6.16
2022-11-26T13:38:20.746Z,6.11
2022-11-26T13:41:06.791Z,6.26
2022-11-26T13:43:59.582Z,6.26
2022-11-26T13:46:29.716Z,6.21
2022-11-26T13:49:01.215Z,6.24
2022-11-26T13:51:34.514Z,6.20
2022-11-26T13:54:08.453Z,6.32
2022-11-26T13:56:38.208Z,6.29
2022-11-26T13:59:09.578Z,6.31
2022-11-26T14:01:41.066Z,6.41
2022-11-26T14:04:09.954Z,6.42
2022-11-26T14:06:38.299Z,6.26
2022-11-26T14:09:06.645Z,6.29
2022-11-26T14:11:57.955Z,6.23
2022-11-26T14:14:33.019Z,6.22
2022-11-26T14:17:16.986Z,6.16
2022-11-26T14:20:14.893Z,5.96
2022-11-26T14:22:42.496Z,5.92
2022-11-26T14:25:15.619Z,5.79
2022-11-26T14:27:53.566Z,5.75
2022-11-26T14:30:24.019Z,5.82
2022-11-26T14:33:01.187Z,5.80
2022-11-26T14:35:33.879Z,5.80
2022-11-26T14:38:03.257Z,5.80
2022-11-26T14:40:32.741Z,5.70
2022-11-26T14:43:15.029Z,5.56
2022-11-26T14:45:43.373Z,5.60
2022-11-26T14:48:22.564Z,5.40
2022-11-26T14:50:51.373Z,5.22
2022-11-26T14:53:21.053Z,5.16
2022-11-26T14:55:49.016Z,5.14
2022-11-26T14:58:19.144Z,5.04
2022-11-26T15:01:03.122Z,4.98
2022-11-26T15:03:32.541Z,4.91
2022-11-26T15:06:00.228Z,4.85
2022-11-26T15:08:28.130Z,4.75
2022-11-26T15:10:58.707Z,4.74
2022-11-26T15:13:29.457Z,4.67
2022-11-26T15:15:58.940Z,4.62
2022-11-26T15:18:33.070Z,4.48
2022-11-26T15:21:03.404Z,4.34
2022-11-26T15:23:32.600Z,4.22
2022-11-26T15:26:01.055Z,4.12
2022-11-26T15:28:29.204Z,4.01
2022-11-26T15:30:59.429Z,3.94
2022-11-26T15:33:28.560Z,3.78
2022-11-26T15:35:58.009Z,3.76
2022-11-26T15:38:28.191Z,3.71
2022-11-26T15:40:57.305Z,3.65
2022-11-26T15:43:29.731Z,3.57
2022-11-26T15:45:59.940Z,3.54
2022-11-26T15:48:50.556Z,3.51
2022-11-26T15:51:23.211Z,3.50
2022-11-26T15:53:52.737Z,3.48
2022-11-26T15:56:22.473Z,3.46
2022-11-26T15:58:54.324Z,3.49
2022-11-26T16:01:24.368Z,3.45
2022-11-26T16:03:52.953Z,3.44
2022-11-26T16:06:29.926Z,3.42
2022-11-26T16:09:05.273Z,3.34
2022-11-26T16:11:36.583Z,3.20
2022-11-26T16:14:24.354Z,3.15
2022-11-26T16:16:52.784Z,3.01
2022-11-26T16:19:22.518Z,2.97
2022-11-26T16:21:51.707Z,2.98
2022-11-26T16:24:27.534Z,2.98
2022-11-26T16:26:57.500Z,2.89
2022-11-26T16:29:25.435Z,2.85
2022-11-26T16:31:53.126Z,2.75
2022-11-26T16:34:21.087Z,2.74
2022-11-26T16:36:49.006Z,2.69
2022-11-26T16:39:18.346Z,2.63
2022-11-26T16:41:47.336Z,2.56
2022-11-26T16:44:15.671Z,2.50
2022-11-26T16:46:44.899Z,2.44
2022-11-26T16:49:12.507Z,2.34
2022-11-26T16:51:40.072Z,2.27
2022-11-26T16:54:08.611Z,2.17
2022-11-26T16:56:38.784Z,2.14
2022-11-26T16:59:15.802Z,2.12
2022-11-26T17:01:43.362Z,2.01
2022-11-26T17:04:14.528Z,2.00
2022-11-26T17:06:43.241Z,1.98
2022-11-26T17:09:16.747Z,1.90
2022-11-26T17:11:44.329Z,1.80
2022-11-26T17:14:13.755Z,1.77
2022-11-26T17:16:41.789Z,1.76
2022-11-26T17:19:13.745Z,1.65
2022-11-26T17:21:41.387Z,1.63
2022-11-26T17:24:09.338Z,1.63
2022-11-26T17:26:36.972Z,1.58
2022-11-26T17:29:04.620Z,1.51
2022-11-26T17:31:33.617Z,1.47
2022-11-26T17:34:01.206Z,1.44
2022-11-26T17:36:35.314Z,1.41
2022-11-26T17:39:04.668Z,1.39
2022-11-26T17:41:32.236Z,1.48
2022-11-26T17:43:59.796Z,1.55
2022-11-26T17:46:27.441Z,1.56
2022-11-26T17:48:59.758Z,1.69
2022-11-26T17:51:27.713Z,1.55
2022-11-26T17:53:55.284Z,1.50
2022-11-26T17:56:24.328Z,1.48
2022-11-26T17:58:52.059Z,1.38
2022-11-26T18:01:20.280Z,1.28
2022-11-26T18:03:48.791Z,1.19
2022-11-26T18:06:19.465Z,1.14
2022-11-26T18:08:47.239Z,1.00
2022-11-26T18:11:17.048Z,0.98
2022-11-26T18:13:45.294Z,0.91
2022-11-26T18:16:12.989Z,0.87
2022-11-26T18:18:40.705Z,0.93
2022-11-26T18:21:08.243Z,0.84
2022-11-26T18:23:37.151Z,0.72
2022-11-26T18:26:04.805Z,0.60
2022-11-26T18:28:32.689Z,0.65
2022-11-26T18:31:00.520Z,0.59
2022-11-26T18:33:28.114Z,0.55
2022-11-26T18:35:55.700Z,0.59
2022-11-26T18:38:29.176Z,0.59
2022-11-26T18:41:03.452Z,0.54
2022-11-26T18:43:31.646Z,0.47
2022-11-26T18:45:59.438Z,0.43
2022-11-26T18:48:27.096Z,0.37
2022-11-26T18:50:57.946Z,0.34
2022-11-26T18:53:26.056Z,0.36
2022-11-26T18:55:54.021Z,0.31
2022-11-26T18:58:23.013Z,0.32
2022-11-26T19:00:51.030Z,0.20
2022-11-26T19:03:18.962Z,0.12
2022-11-26T19:05:49.640Z,0.18
2022-11-26T19:08:17.208Z,0.09
2022-11-26T19:10:44.864Z,0.09
2022-11-26T19:13:13.042Z,0.04
2022-11-26T19:15:43.347Z,-0.05
2022-11-26T19:18:11.348Z,-0.13
2022-11-26T19:20:38.951Z,-0.40
2022-11-26T19:23:06.488Z,-0.45
2022-11-26T19:25:34.890Z,-0.43
2022-11-26T19:28:05.084Z,-0.35
2022-11-26T19:30:33.188Z,-0.37
2022-11-26T19:33:02.710Z,-0.41
2022-11-26T19:35:30.259Z,-0.44
2022-11-26T19:37:57.814Z,-0.44
2022-11-26T19:40:25.395Z,-0.49
2022-11-26T19:42:52.964Z,-0.52
2022-11-26T19:45:20.513Z,-0.40
2022-11-26T19:47:48.079Z,-0.28
2022-11-26T19:50:17.464Z,-0.21
2022-11-26T19:52:47.952Z,-0.16
2022-11-26T19:55:16.024Z,-0.19
2022-11-26T19:57:43.580Z,-0.41
2022-11-26T20:00:13.050Z,-0.40
2022-11-26T20:02:40.641Z,-0.46
2022-11-26T20:05:09.284Z,-0.41
2022-11-26T20:07:38.269Z,-0.47
2022-11-26T20:10:06.792Z,-0.44
2022-11-26T20:12:34.369Z,-0.41
2022-11-26T20:15:01.991Z,-0.49
2022-11-26T20:17:29.546Z,-0.61
2022-11-26T20:19:57.110Z,-0.63
2022-11-26T20:22:27.973Z,-0.63
2022-11-26T20:24:57.168Z,-0.86
2022-11-26T20:27:24.827Z,-0.98
2022-11-26T20:29:52.405Z,-0.94
2022-11-26T20:32:19.994Z,-0.94
2022-11-26T20:34:47.528Z,-0.99
2022-11-26T20:37:15.127Z,-1.10
2022-11-26T20:39:42.926Z,-1.18
2022-11-26T20:42:15.098Z,-1.14
2022-11-26T20:44:42.855Z,-1.14
2022-11-26T20:47:10.535Z,-1.23
2022-11-26T20:49:42.980Z,-1.32
2022-11-26T20:52:10.982Z,-1.28
2022-11-26T20:54:38.730Z,-1.31
2022-11-26T20:57:06.899Z,-1.31
2022-11-26T20:59:35.936Z,-1.25
2022-11-26T21:02:03.543Z,-1.26
2022-11-26T21:04:31.421Z,-1.27
2022-11-26T21:06:59.000Z,-1.22
2022-11-26T21:09:26.814Z,-1.20
2022-11-26T21:11:54.403Z,-1.19
2022-11-26T21:14:22.034Z,-1.17
2022-11-26T21:16:51.534Z,-1.15
2022-11-26T21:19:19.192Z,-1.21
2022-11-26T21:21:47.306Z,-1.22
2022-11-26T21:24:15.286Z,-1.26
2022-11-26T21:26:42.838Z,-1.29
2022-11-26T21:29:10.426Z,-1.38
2022-11-26T21:31:38.177Z,-1.34
2022-11-26T21:34:08.893Z,-1.38
2022-11-26T21:36:37.534Z,-1.44
2022-11-26T21:39:06.238Z,-1.44
2022-11-26T21:41:34.071Z,-1.50
2022-11-26T21:44:03.724Z,-1.47
2022-11-26T21:46:37.563Z,-1.58
2022-11-26T21:49:08.266Z,-1.70
2022-11-26T21:51:36.110Z,-1.72
2022-11-26T21:54:03.866Z,-1.79
2022-11-26T21:56:32.789Z,-1.76
2022-11-26T21:59:01.701Z,-1.81
2022-11-26T22:01:30.472Z,-2.00
2022-11-26T22:04:00.115Z,-2.09
2022-11-26T22:06:29.539Z,-1.87
2022-11-26T22:08:57.235Z,-1.86
2022-11-26T22:11:26.549Z,-1.98
2022-11-26T22:13:54.546Z,-1.93
2022-11-26T22:16:24.043Z,-1.94
2022-11-26T22:18:52.256Z,-2.01
2022-11-26T22:21:21.412Z,-2.12
2022-11-26T22:23:50.886Z,-2.10
2022-11-26T22:26:18.628Z,-2.07
2022-11-26T22:28:46.413Z,-2.08
2022-11-26T22:31:16.368Z,-2.10
2022-11-26T22:33:43.970Z,-1.99
2022-11-26T22:36:11.760Z,-1.94
2022-11-26T22:38:41.191Z,-1.95
2022-11-26T22:41:11.367Z,-1.91
2022-11-26T22:43:39.001Z,-1.93
2022-11-26T22:46:09.615Z,-1.92
2022-11-26T22:48:37.318Z,-1.94
2022-11-26T22:51:05.353Z,-2.04
2022-11-26T22:53:33.302Z,-1.97
2022-11-26T22:56:01.923Z,-1.91
2022-11-26T22:58:31.766Z,-1.98
2022-11-26T23:01:01.037Z,-1.99
2022-11-26T23:03:30.039Z,-1.96
2022-11-26T23:05:58.025Z,-1.98
2022-11-26T23:08:25.596Z,-1.97
2022-11-26T23:10:53.194Z,-2.04
2022-11-26T23:13:20.750Z,-2.32
2022-11-26T23:15:50.299Z,-2.36
2022-11-26T23:18:17.950Z,-2.42
2022-11-26T23:20:45.510Z,-2.28
2022-11-26T23:23:14.012Z,-2.16
2022-11-26T23:25:41.922Z,-1.99
2022-11-26T23:28:09.931Z,-2.15
2022-11-26T23:30:38.063Z,-2.19
2022-11-26T23:33:07.027Z,-2.17
2022-11-26T23:35:34.608Z,-2.11
2022-11-26T23:38:02.367Z,-2.25
2022-11-26T23:40:29.967Z,-2.14
2022-11-26T23:42:57.809Z,-2.10
2022-11-26T23:45:25.385Z,-2.17
2022-11-26T23:47:53.019Z,-2.11
2022-11-26T23:50:22.013Z,-2.14
2022-11-26T23:52:49.565Z,-2.06
2022-11-26T23:55:17.436Z,-2.06
2022-11-26T23:57:45.035Z,-2.07
